Time;durP1;ratioP1;P1;durP2;ratioP2;P2;SDS_P1;SDS_P2;PMS_P1;PMS_P2;Temp;Humidity;BMP_temperature;BMP_pressure;BME280_temperature;BME280_humidity;BME280_pressure;Samples;Min_cycle;Max_cycle;Signal;HPM_P1;HPM_P2
2023/03/03 00:01:09;;;;;;;79.93;36.87;;;-0.20;99.90;;;;;;5031512;28;20040;-84
2023/03/03 00:03:34;;;;;;;83.27;37.53;;;-0.30;99.90;;;;;;5033008;28;20029;-85
2023/03/03 00:06:03;;;;;;;77.50;35.47;;;-0.30;99.90;;;;;;5028959;28;20037;-85
2023/03/03 00:08:28;;;;;;;74.70;34.37;;;-0.30;99.90;;;;;;5030537;28;20033;-84
2023/03/03 00:10:54;;;;;;;75.43;35.53;;;-0.30;99.90;;;;;;5034081;28;20076;-85
2023/03/03 00:13:27;;;;;;;77.83;34.30;;;-0.30;99.90;;;;;;5029701;28;20025;-84
2023/03/03 00:15:53;;;;;;;78.40;38.10;;;-0.30;99.90;;;;;;5030362;28;20453;-84
2023/03/03 00:18:25;;;;;;;78.23;36.27;;;-0.40;99.90;;;;;;5031592;28;20031;-84
2023/03/03 00:21:05;;;;;;;75.87;35.00;;;-0.40;99.90;;;;;;5033044;28;20124;-85
2023/03/03 00:23:36;;;;;;;75.40;34.20;;;-0.40;99.90;;;;;;5031086;28;20020;-85
2023/03/03 00:26:17;;;;;;;77.53;35.83;;;-0.40;99.90;;;;;;5028879;28;20134;-85
2023/03/03 00:28:49;;;;;;;84.17;36.97;;;-0.50;99.90;;;;;;5030932;28;20032;-84
2023/03/03 00:31:20;;;;;;;82.93;37.10;;;-0.50;99.90;;;;;;5029998;28;21454;-84
2023/03/03 00:33:56;;;;;;;78.13;36.60;;;-0.50;99.90;;;;;;5030797;28;20029;-84
2023/03/03 00:36:39;;;;;;;76.93;34.77;;;-0.50;99.90;;;;;;5027709;28;20050;-85
2023/03/03 00:39:35;;;;;;;75.47;35.00;;;-0.50;99.90;;;;;;5030389;28;20164;-85
2023/03/03 00:42:04;;;;;;;75.93;34.53;;;-0.50;99.90;;;;;;5030644;28;20079;-85
2023/03/03 00:44:41;;;;;;;75.13;35.57;;;-0.60;99.90;;;;;;5030015;28;20108;-85
2023/03/03 00:47:30;;;;;;;78.80;35.10;;;-0.60;99.90;;;;;;5028600;28;20390;-85
2023/03/03 00:50:10;;;;;;;74.07;34.93;;;-0.60;99.90;;;;;;5030724;28;20025;-85
2023/03/03 00:52:47;;;;;;;74.43;34.43;;;-0.70;99.90;;;;;;5033202;28;20033;-84
2023/03/03 00:55:13;;;;;;;72.90;35.23;;;-0.70;99.90;;;;;;5029349;28;20112;-85
2023/03/03 00:57:38;;;;;;;72.03;34.50;;;-0.70;99.90;;;;;;5029780;28;20468;-85
2023/03/03 01:00:04;;;;;;;80.13;36.17;;;-0.80;99.90;;;;;;5030020;28;20029;-85
2023/03/03 01:02:30;;;;;;;78.83;35.50;;;-0.80;99.90;;;;;;5029067;28;20030;-85
2023/03/03 01:04:56;;;;;;;73.57;34.67;;;-0.80;99.90;;;;;;5029759;28;20022;-85
2023/03/03 01:07:22;;;;;;;81.00;36.53;;;-0.80;99.90;;;;;;5028774;28;20056;-85
2023/03/03 01:09:48;;;;;;;87.17;37.60;;;-0.80;99.90;;;;;;5032386;28;20048;-85
2023/03/03 01:12:14;;;;;;;77.27;34.70;;;-0.80;99.90;;;;;;5031130;28;20030;-84
2023/03/03 01:14:40;;;;;;;79.17;36.13;;;-0.90;99.90;;;;;;5029920;28;20049;-85
2023/03/03 01:17:06;;;;;;;82.07;37.23;;;-0.90;99.90;;;;;;5030283;28;20051;-84
2023/03/03 01:19:32;;;;;;;79.43;35.13;;;-0.90;99.90;;;;;;5030887;28;20033;-85
2023/03/03 01:21:57;;;;;;;77.70;35.67;;;-0.90;99.90;;;;;;5029862;28;20029;-84
2023/03/03 01:24:23;;;;;;;82.87;35.97;;;-0.90;99.90;;;;;;5031413;28;20021;-84
2023/03/03 01:26:49;;;;;;;79.50;34.27;;;-0.90;99.90;;;;;;5030029;28;20029;-84
2023/03/03 01:29:14;;;;;;;79.37;36.17;;;-0.90;99.90;;;;;;5028643;28;20850;-84
2023/03/03 01:31:40;;;;;;;76.03;34.70;;;-0.90;99.90;;;;;;5030974;28;20033;-84
2023/03/03 01:34:08;;;;;;;76.53;34.57;;;-0.90;99.90;;;;;;5029297;28;20407;-84
2023/03/03 01:36:34;;;;;;;73.83;35.40;;;-0.90;99.90;;;;;;5028315;28;20767;-85
2023/03/03 01:39:00;;;;;;;83.87;38.50;;;-0.90;99.90;;;;;;5027769;28;20030;-84
2023/03/03 01:41:29;;;;;;;85.77;38.77;;;-0.90;99.90;;;;;;5030004;28;20029;-85
2023/03/03 01:43:57;;;;;;;86.83;38.03;;;-0.90;99.90;;;;;;5030084;28;20053;-84
2023/03/03 01:46:53;;;;;;;88.70;38.90;;;-0.90;99.90;;;;;;5029451;28;20071;-84
2023/03/03 01:49:25;;;;;;;85.95;37.50;;;-0.90;99.90;;;;;;5030709;28;20116;-84
2023/03/03 01:51:55;;;;;;;88.57;38.77;;;-0.90;99.90;;;;;;5037925;28;20030;-84
2023/03/03 01:54:47;;;;;;;84.87;37.93;;;-0.90;99.90;;;;;;5029909;28;20017;-84
2023/03/03 01:57:25;;;;;;;88.93;37.73;;;-0.90;99.90;;;;;;5035366;28;20127;-84
2023/03/03 01:59:52;;;;;;;84.13;36.23;;;-0.80;99.90;;;;;;5031949;28;20025;-84
2023/03/03 02:02:18;;;;;;;82.17;35.90;;;-0.80;99.90;;;;;;5033628;28;20103;-84
2023/03/03 02:04:44;;;;;;;85.27;37.40;;;-0.90;99.90;;;;;;5031997;28;20034;-84
2023/03/03 02:07:11;;;;;;;79.03;36.57;;;-0.80;99.90;;;;;;5034288;28;20445;-84
2023/03/03 02:10:02;;;;;;;88.10;38.77;;;-0.80;99.90;;;;;;5033713;28;20061;-84
2023/03/03 02:12:39;;;;;;;87.53;39.20;;;-0.80;99.90;;;;;;5030815;28;20108;-84
2023/03/03 02:15:43;;;;;;;94.00;41.27;;;-0.70;99.90;;;;;;5033805;28;20485;-85
2023/03/03 02:18:11;;;;;;;93.23;41.33;;;-0.70;99.90;;;;;;5036627;28;20030;-85
2023/03/03 02:20:48;;;;;;;85.07;38.63;;;-0.70;99.90;;;;;;5021160;28;20107;-84
2023/03/03 02:23:29;;;;;;;91.50;40.00;;;-0.70;99.90;;;;;;5032138;28;20039;-84
2023/03/03 02:25:55;;;;;;;91.53;40.67;;;-0.70;99.90;;;;;;5036440;28;20025;-84
2023/03/03 02:28:29;;;;;;;93.17;40.83;;;-0.70;99.90;;;;;;5038720;28;20044;-84
2023/03/03 02:30:56;;;;;;;88.03;38.07;;;-0.70;99.90;;;;;;5037154;28;20124;-84
2023/03/03 02:33:22;;;;;;;85.30;37.67;;;-0.70;99.90;;;;;;5038472;28;20036;-84
2023/03/03 02:35:49;;;;;;;81.93;37.73;;;-0.70;99.90;;;;;;5038548;28;20033;-84
2023/03/03 02:38:26;;;;;;;81.17;36.93;;;-0.70;99.90;;;;;;5037898;28;20425;-84
2023/03/03 02:41:01;;;;;;;85.00;37.43;;;-0.70;99.90;;;;;;5035201;28;20027;-84
2023/03/03 02:43:38;;;;;;;83.50;37.85;;;-0.80;99.90;;;;;;5036321;28;20028;-84
2023/03/03 02:46:04;;;;;;;87.60;39.23;;;-0.80;99.90;;;;;;5038373;28;20064;-84
2023/03/03 02:48:30;;;;;;;83.30;37.73;;;-0.80;99.90;;;;;;5038459;28;20057;-84
2023/03/03 02:50:55;;;;;;;81.67;38.27;;;-0.80;99.90;;;;;;5039435;28;20021;-84
2023/03/03 02:53:21;;;;;;;85.20;38.57;;;-0.70;99.90;;;;;;5037286;28;20032;-84
2023/03/03 02:55:46;;;;;;;86.00;38.47;;;-0.70;99.90;;;;;;5039874;28;21324;-84
2023/03/03 02:58:12;;;;;;;85.43;38.40;;;-0.70;99.90;;;;;;5040895;28;20013;-84
2023/03/03 03:00:37;;;;;;;90.13;37.50;;;-0.70;99.90;;;;;;5040513;28;20013;-84
2023/03/03 03:03:03;;;;;;;86.10;38.23;;;-0.60;99.90;;;;;;5039480;28;20072;-84
2023/03/03 03:05:28;;;;;;;88.13;40.67;;;-0.60;99.90;;;;;;5039704;28;20052;-84
2023/03/03 03:07:54;;;;;;;88.07;39.23;;;-0.60;99.90;;;;;;5043621;28;20033;-84
2023/03/03 03:10:19;;;;;;;92.70;39.63;;;-0.60;99.90;;;;;;5038229;28;20030;-84
2023/03/03 03:12:45;;;;;;;86.10;40.40;;;-0.50;99.90;;;;;;5042175;28;20017;-84
2023/03/03 03:15:11;;;;;;;87.80;39.40;;;-0.50;99.90;;;;;;5036396;28;20121;-84
2023/03/03 03:17:39;;;;;;;88.90;39.67;;;-0.40;99.90;;;;;;5041589;28;20061;-84
2023/03/03 03:20:05;;;;;;;77.30;35.80;;;-0.40;99.90;;;;;;5036487;28;20044;-84
2023/03/03 03:22:31;;;;;;;74.23;36.17;;;-0.40;99.90;;;;;;5034337;28;20033;-84
2023/03/03 03:24:56;;;;;;;83.40;37.27;;;-0.40;99.90;;;;;;5038587;28;20013;-84
2023/03/03 03:27:22;;;;;;;82.13;36.93;;;-0.40;99.90;;;;;;5039494;28;20087;-84
2023/03/03 03:29:48;;;;;;;77.73;36.47;;;-0.30;99.90;;;;;;5038616;28;20029;-84
2023/03/03 03:32:13;;;;;;;79.37;36.53;;;-0.30;99.90;;;;;;5037025;28;20481;-84
2023/03/03 03:34:39;;;;;;;75.83;35.43;;;-0.30;99.90;;;;;;5033756;28;20079;-84
2023/03/03 03:37:05;;;;;;;81.10;36.47;;;-0.30;99.90;;;;;;5037844;28;20100;-84
2023/03/03 03:39:31;;;;;;;81.37;38.30;;;-0.20;99.90;;;;;;5043227;28;20481;-84
2023/03/03 03:41:59;;;;;;;75.20;36.13;;;-0.20;99.90;;;;;;5036943;28;20025;-84
2023/03/03 03:44:25;;;;;;;80.63;37.27;;;-0.20;99.90;;;;;;5037205;28;20433;-84
2023/03/03 03:46:50;;;;;;;77.53;37.50;;;-0.10;99.90;;;;;;5039445;28;20048;-84
2023/03/03 03:49:16;;;;;;;81.47;37.53;;;0.00;99.90;;;;;;5036098;28;20048;-84
2023/03/03 03:51:41;;;;;;;80.20;37.60;;;0.00;99.90;;;;;;5041025;28;20026;-84
2023/03/03 03:54:07;;;;;;;79.37;36.87;;;0.00;99.90;;;;;;5038486;28;20029;-84
2023/03/03 03:56:35;;;;;;;83.33;38.27;;;0.10;99.90;;;;;;5037400;28;20123;-84
2023/03/03 03:59:00;;;;;;;78.97;37.80;;;0.10;99.90;;;;;;5037803;28;20032;-84
2023/03/03 04:01:27;;;;;;;83.57;37.33;;;0.20;99.90;;;;;;5038942;28;20335;-84
2023/03/03 04:03:52;;;;;;;76.33;37.77;;;0.20;99.90;;;;;;5035778;28;20090;-84
2023/03/03 04:06:18;;;;;;;81.10;39.57;;;0.30;99.90;;;;;;5035541;28;20439;-84
2023/03/03 04:08:45;;;;;;;86.77;39.77;;;0.30;99.90;;;;;;5038453;28;20104;-84
2023/03/03 04:11:11;;;;;;;76.10;36.07;;;0.40;99.90;;;;;;5036875;28;20060;-84
2023/03/03 04:13:37;;;;;;;77.03;36.43;;;0.30;99.90;;;;;;5035270;28;20155;-84
2023/03/03 04:16:02;;;;;;;79.93;36.67;;;0.40;99.90;;;;;;5036495;28;20415;-84
2023/03/03 04:18:28;;;;;;;68.63;34.37;;;0.40;99.90;;;;;;5035856;28;20040;-84
2023/03/03 04:20:54;;;;;;;73.23;35.30;;;0.40;99.90;;;;;;5034785;28;20443;-84
2023/03/03 04:23:20;;;;;;;75.63;36.07;;;0.40;99.90;;;;;;5031571;28;20037;-84
2023/03/03 04:25:47;;;;;;;74.90;36.60;;;0.40;99.90;;;;;;5035728;28;20033;-84
2023/03/03 04:28:13;;;;;;;75.37;35.63;;;0.40;99.90;;;;;;5036855;28;20036;-84
2023/03/03 04:30:39;;;;;;;77.23;35.20;;;0.40;99.90;;;;;;5036101;28;20026;-85
2023/03/03 04:33:05;;;;;;;76.50;36.83;;;0.40;99.90;;;;;;5035764;28;20116;-84
2023/03/03 04:35:30;;;;;;;80.93;36.77;;;0.40;99.90;;;;;;5036439;28;20039;-84
2023/03/03 04:37:56;;;;;;;79.57;37.13;;;0.40;99.90;;;;;;5037473;28;20030;-84
2023/03/03 04:40:21;;;;;;;74.87;36.07;;;0.50;99.90;;;;;;5036358;28;20029;-84
2023/03/03 04:42:47;;;;;;;76.50;35.67;;;0.50;99.90;;;;;;5034454;28;20439;-85
2023/03/03 04:45:13;;;;;;;77.67;35.97;;;0.50;99.90;;;;;;5033114;28;20120;-84
2023/03/03 04:47:38;;;;;;;74.20;36.87;;;0.50;99.90;;;;;;5033512;28;20047;-84
2023/03/03 04:50:04;;;;;;;79.00;36.50;;;0.50;99.90;;;;;;5031581;28;20037;-84
2023/03/03 04:52:30;;;;;;;73.17;36.33;;;0.50;99.90;;;;;;5031571;28;20065;-85
2023/03/03 04:54:55;;;;;;;74.97;36.70;;;0.50;99.90;;;;;;5028268;28;20430;-84
2023/03/03 04:57:21;;;;;;;76.30;36.00;;;0.60;99.90;;;;;;5035436;28;20067;-85
2023/03/03 04:59:46;;;;;;;77.20;36.57;;;0.60;99.90;;;;;;5034017;28;20060;-84
2023/03/03 05:02:12;;;;;;;77.13;37.07;;;0.60;99.90;;;;;;5032279;28;20056;-84
2023/03/03 05:04:38;;;;;;;74.77;37.07;;;0.60;99.90;;;;;;5036671;28;20076;-85
2023/03/03 05:07:03;;;;;;;79.47;36.70;;;0.60;99.90;;;;;;5030210;28;20025;-84
2023/03/03 05:09:29;;;;;;;79.80;38.47;;;0.70;99.90;;;;;;5030448;28;20037;-84
2023/03/03 05:11:55;;;;;;;84.80;39.50;;;0.70;99.90;;;;;;5039230;28;20048;-87
2023/03/03 05:14:20;;;;;;;74.80;37.80;;;0.70;99.90;;;;;;5039647;28;20033;-86
2023/03/03 05:16:46;;;;;;;78.43;39.33;;;0.70;99.90;;;;;;5034631;28;20835;-86
2023/03/03 05:19:12;;;;;;;82.67;40.23;;;0.70;99.90;;;;;;5032538;28;20392;-86
2023/03/03 05:21:41;;;;;;;83.70;40.30;;;0.70;99.90;;;;;;5033931;28;20080;-83
2023/03/03 05:24:07;;;;;;;83.60;40.50;;;0.80;99.90;;;;;;5035894;28;20021;-83
2023/03/03 05:26:33;;;;;;;84.67;41.70;;;0.80;99.90;;;;;;5032946;28;20029;-74
2023/03/03 05:28:58;;;;;;;78.90;39.97;;;0.80;99.90;;;;;;5037210;28;20083;-74
2023/03/03 05:31:26;;;;;;;83.47;39.70;;;0.80;99.90;;;;;;5038850;28;20029;-84
2023/03/03 05:33:52;;;;;;;74.63;37.20;;;0.80;99.90;;;;;;5038132;28;20363;-82
2023/03/03 05:36:17;;;;;;;81.37;36.13;;;0.80;99.90;;;;;;5038359;28;20060;-82
2023/03/03 05:38:43;;;;;;;81.10;38.23;;;0.80;99.90;;;;;;5036067;28;20435;-82
2023/03/03 05:41:08;;;;;;;74.97;37.00;;;0.80;99.90;;;;;;5037169;28;20044;-82
2023/03/03 05:43:34;;;;;;;79.70;37.03;;;0.80;99.90;;;;;;5034035;28;20101;-82
2023/03/03 05:45:59;;;;;;;81.90;38.00;;;0.80;99.90;;;;;;5039902;28;20486;-86
2023/03/03 05:48:26;;;;;;;80.47;38.50;;;0.80;99.90;;;;;;5024520;28;20056;-86
2023/03/03 05:50:52;;;;;;;78.80;38.20;;;0.90;99.90;;;;;;5035825;28;20036;-75
2023/03/03 05:53:18;;;;;;;79.83;37.83;;;0.90;99.90;;;;;;5035432;28;20050;-75
2023/03/03 05:55:43;;;;;;;85.57;38.40;;;0.90;99.90;;;;;;5034981;28;20027;-75
2023/03/03 05:58:09;;;;;;;88.73;39.77;;;0.90;99.90;;;;;;5033855;28;20112;-75
2023/03/03 06:00:34;;;;;;;82.40;38.90;;;0.90;99.90;;;;;;5034552;28;20021;-86
2023/03/03 06:03:00;;;;;;;81.30;39.53;;;0.90;99.90;;;;;;5025395;28;20029;-86
2023/03/03 06:05:26;;;;;;;89.27;40.50;;;1.00;99.90;;;;;;5036752;28;20086;-86
2023/03/03 06:07:51;;;;;;;87.53;38.83;;;1.00;99.90;;;;;;5031600;28;20026;-86
2023/03/03 06:10:17;;;;;;;84.57;38.93;;;1.00;99.90;;;;;;5032443;28;20025;-87
2023/03/03 06:12:43;;;;;;;77.77;38.70;;;1.00;99.90;;;;;;5032133;28;20104;-87
2023/03/03 06:15:09;;;;;;;79.17;39.30;;;1.00;99.90;;;;;;5033057;28;20033;-86
2023/03/03 06:17:35;;;;;;;78.87;38.23;;;1.00;99.90;;;;;;5028903;28;20060;-86
2023/03/03 06:20:00;;;;;;;85.67;39.07;;;1.00;99.90;;;;;;5037481;28;20013;-87
2023/03/03 06:22:28;;;;;;;82.67;37.77;;;1.00;99.90;;;;;;5035750;28;20485;-86
2023/03/03 06:24:59;;;;;;;84.43;40.03;;;1.00;99.90;;;;;;5032786;28;20030;-88
2023/03/03 06:27:25;;;;;;;85.13;39.67;;;1.10;99.90;;;;;;5020241;28;20045;-89
2023/03/03 06:29:50;;;;;;;86.40;40.67;;;1.10;99.90;;;;;;5030346;28;20466;-86
2023/03/03 06:32:16;;;;;;;85.93;39.67;;;1.10;99.90;;;;;;5032054;28;20151;-86
2023/03/03 06:34:42;;;;;;;83.00;40.93;;;1.10;99.90;;;;;;5029482;28;20033;-86
2023/03/03 06:37:09;;;;;;;82.23;39.67;;;1.10;99.90;;;;;;5028607;28;20040;-86
2023/03/03 06:39:37;;;;;;;83.97;40.07;;;1.10;99.90;;;;;;5033453;28;20109;-86
2023/03/03 06:42:05;;;;;;;89.83;41.77;;;1.20;99.90;;;;;;5033999;28;20079;-87
2023/03/03 06:44:31;;;;;;;88.73;40.43;;;1.20;99.90;;;;;;5024108;28;20112;-87
2023/03/03 06:46:57;;;;;;;85.70;41.00;;;1.20;99.90;;;;;;5028703;28;20129;-86
2023/03/03 06:49:25;;;;;;;87.47;41.70;;;1.20;99.90;;;;;;5027908;28;20037;-86
2023/03/03 06:51:51;;;;;;;90.53;40.97;;;1.20;99.90;;;;;;5033337;28;20401;-87
2023/03/03 06:54:19;;;;;;;92.10;40.80;;;1.30;99.90;;;;;;5031578;28;20033;-86
2023/03/03 06:56:45;;;;;;;90.87;40.77;;;1.30;99.90;;;;;;5030143;28;20036;-86
2023/03/03 06:59:20;;;;;;;86.33;41.37;;;1.30;99.90;;;;;;5026818;28;20029;-85
2023/03/03 07:01:47;;;;;;;81.65;40.55;;;1.40;99.90;;;;;;5032498;28;20091;-85
2023/03/03 07:04:34;;;;;;;85.43;41.17;;;1.40;99.90;;;;;;5029613;28;20475;-85
2023/03/03 07:07:25;;;;;;;84.50;40.37;;;1.40;99.90;;;;;;5035414;28;20041;-85
2023/03/03 07:09:54;;;;;;;82.07;38.67;;;1.50;99.90;;;;;;5031388;28;20042;-85
2023/03/03 07:12:28;;;;;;;84.90;40.70;;;1.50;99.90;;;;;;5030222;28;20025;-85
2023/03/03 07:15:14;;;;;;;89.80;41.43;;;1.60;99.90;;;;;;5036695;28;20021;-85
2023/03/03 07:17:44;;;;;;;87.67;41.33;;;1.50;99.90;;;;;;5034727;28;20416;-85
2023/03/03 07:20:37;;;;;;;86.50;38.93;;;1.60;99.90;;;;;;5033627;28;20025;-86
2023/03/03 07:23:31;;;;;;;88.33;40.10;;;1.60;99.90;;;;;;5028196;28;20486;-86
2023/03/03 07:25:57;;;;;;;91.20;42.17;;;1.70;99.90;;;;;;5027967;28;20021;-85
2023/03/03 07:28:26;;;;;;;82.90;40.27;;;1.70;99.90;;;;;;5030428;28;20113;-85
2023/03/03 07:30:53;;;;;;;87.43;41.97;;;1.80;99.90;;;;;;5031680;28;20100;-86
2023/03/03 07:33:24;;;;;;;80.83;40.80;;;1.80;99.90;;;;;;5029128;28;20041;-91
2023/03/03 07:35:50;;;;;;;87.70;42.63;;;1.90;99.90;;;;;;5035136;28;20385;-86
2023/03/03 07:38:29;;;;;;;87.60;42.60;;;1.90;99.90;;;;;;5029999;28;20025;-84
2023/03/03 07:40:57;;;;;;;89.27;41.40;;;1.90;99.90;;;;;;5014783;28;20030;-89
2023/03/03 07:43:30;;;;;;;83.63;39.57;;;2.00;99.90;;;;;;5025867;28;20025;-91
2023/03/03 07:46:21;;;;;;;83.23;40.87;;;2.00;99.90;;;;;;5034684;28;20051;-91
2023/03/03 07:48:51;;;;;;;86.90;40.73;;;2.00;99.90;;;;;;5032479;28;20389;-86
2023/03/03 07:51:27;;;;;;;81.20;40.67;;;2.00;99.90;;;;;;5031546;28;20501;-89
2023/03/03 07:53:57;;;;;;;83.40;40.83;;;2.10;99.90;;;;;;5029343;28;20029;-89
2023/03/03 07:56:29;;;;;;;80.43;41.30;;;2.10;99.90;;;;;;5034936;28;20455;-89
2023/03/03 07:58:56;;;;;;;82.33;41.47;;;2.10;99.90;;;;;;5034379;28;20021;-91
2023/03/03 08:01:38;;;;;;;81.50;40.67;;;2.20;99.90;;;;;;5039993;28;20028;-91
2023/03/03 08:04:12;;;;;;;87.90;42.83;;;2.20;99.90;;;;;;5034870;28;20103;-85
2023/03/03 08:06:41;;;;;;;81.50;40.57;;;2.20;99.90;;;;;;5040355;28;20029;-85
2023/03/03 08:09:09;;;;;;;81.73;39.73;;;2.20;99.90;;;;;;5034610;28;20017;-85
2023/03/03 08:11:55;;;;;;;84.40;40.63;;;2.30;99.90;;;;;;5032407;28;20033;-85
2023/03/03 08:14:32;;;;;;;87.53;41.38;;;2.30;99.90;;;;;;5036930;28;20057;-86
2023/03/03 08:16:58;;;;;;;82.47;41.27;;;2.40;99.90;;;;;;5033984;28;20021;-85
2023/03/03 08:19:24;;;;;;;84.87;40.80;;;2.40;99.90;;;;;;5034874;28;20031;-85
2023/03/03 08:21:51;;;;;;;79.87;40.47;;;2.50;99.90;;;;;;5035526;28;20018;-85
2023/03/03 08:24:17;;;;;;;81.03;39.07;;;2.50;99.90;;;;;;5035102;28;20026;-85
2023/03/03 08:26:43;;;;;;;83.07;41.47;;;2.60;99.90;;;;;;5037161;28;20024;-85
2023/03/03 08:29:10;;;;;;;81.67;40.83;;;2.70;99.90;;;;;;5025802;28;20032;-86
2023/03/03 08:31:36;;;;;;;83.00;41.40;;;2.70;99.90;;;;;;5032548;28;20014;-86
2023/03/03 08:34:03;;;;;;;81.73;41.97;;;2.80;99.90;;;;;;5034647;28;20091;-86
2023/03/03 08:36:29;;;;;;;82.93;40.77;;;2.80;99.90;;;;;;5032266;28;20053;-86
2023/03/03 08:38:54;;;;;;;76.30;39.80;;;2.90;99.90;;;;;;5029705;28;20482;-91
2023/03/03 08:41:20;;;;;;;80.97;42.23;;;3.10;99.90;;;;;;5030427;28;20504;-91
2023/03/03 08:43:45;;;;;;;75.17;38.97;;;3.20;99.90;;;;;;5033616;28;20025;-92
2023/03/03 08:46:11;;;;;;;76.13;40.23;;;3.30;99.90;;;;;;5038487;28;20029;-91
2023/03/03 08:48:37;;;;;;;76.47;40.13;;;3.30;99.90;;;;;;5037040;28;20029;-92
2023/03/03 08:51:03;;;;;;;79.30;40.73;;;3.40;99.90;;;;;;5035972;28;20071;-88
2023/03/03 08:53:29;;;;;;;74.07;39.70;;;3.40;99.90;;;;;;5045546;28;20033;-88
2023/03/03 08:55:55;;;;;;;76.50;40.10;;;3.50;99.90;;;;;;5033566;28;20029;-89
2023/03/03 08:58:22;;;;;;;73.27;39.07;;;3.60;99.90;;;;;;5034908;28;20033;-88
2023/03/03 09:00:47;;;;;;;77.70;38.73;;;3.70;99.90;;;;;;5019910;28;20026;-88
2023/03/03 09:03:13;;;;;;;75.83;38.33;;;3.70;99.90;;;;;;5033261;28;20076;-88
2023/03/03 09:05:39;;;;;;;77.30;40.37;;;3.80;99.90;;;;;;5041020;28;20052;-89
2023/03/03 09:08:06;;;;;;;74.17;38.97;;;3.70;99.90;;;;;;5042479;28;20041;-89
2023/03/03 09:10:32;;;;;;;83.40;41.40;;;3.80;99.90;;;;;;5034474;28;20360;-89
2023/03/03 09:13:03;;;;;;;76.37;41.20;;;3.80;99.90;;;;;;5035253;28;20036;-92
2023/03/03 09:15:37;;;;;;;72.63;40.03;;;3.80;99.90;;;;;;5033787;28;20037;-80
2023/03/03 09:18:24;;;;;;;78.23;40.77;;;3.80;99.90;;;;;;5053353;28;20543;-92
2023/03/03 09:20:56;;;;;;;77.03;40.03;;;3.90;99.90;;;;;;5035390;28;20033;-83
2023/03/03 09:23:37;;;;;;;75.00;38.13;;;4.00;99.90;;;;;;5036369;28;20091;-88
2023/03/03 09:26:27;;;;;;;74.43;39.57;;;4.10;99.90;;;;;;5030047;28;20022;-83
2023/03/03 09:29:12;;;;;;;70.93;39.43;;;4.30;99.90;;;;;;5032269;28;20029;-83
2023/03/03 09:32:00;;;;;;;77.47;40.08;;;4.30;99.90;;;;;;5039099;28;20021;-83
2023/03/03 09:34:37;;;;;;;71.80;39.53;;;4.40;99.90;;;;;;5034109;28;20029;-83
2023/03/03 09:37:27;;;;;;;72.67;39.30;;;4.50;99.90;;;;;;5036216;28;20116;-83
2023/03/03 09:39:56;;;;;;;67.07;38.07;;;4.60;99.90;;;;;;5027732;28;20025;-83
2023/03/03 09:42:27;;;;;;;74.83;39.03;;;4.70;99.90;;;;;;5038761;28;20036;-83
2023/03/03 09:45:08;;;;;;;69.87;38.77;;;4.80;99.90;;;;;;5030570;28;20439;-81
2023/03/03 09:47:54;;;;;;;73.67;37.40;;;4.80;99.90;;;;;;5030516;28;20082;-81
2023/03/03 09:51:07;;;;;;;66.57;37.83;;;4.90;99.90;;;;;;5034130;28;20025;-81
2023/03/03 09:54:06;;;;;;;72.37;37.53;;;5.10;99.90;;;;;;5027622;28;20112;-81
2023/03/03 09:56:41;;;;;;;72.20;38.00;;;5.20;99.90;;;;;;5035942;28;20033;-81
2023/03/03 09:59:32;;;;;;;70.53;39.15;;;5.30;99.90;;;;;;5038079;28;21451;-81
2023/03/03 10:02:22;;;;;;;66.73;37.90;;;5.30;99.90;;;;;;5033421;28;20033;-85
2023/03/03 10:05:25;;;;;;;73.47;38.60;;;5.30;99.90;;;;;;5035095;28;20045;-85
2023/03/03 10:08:00;;;;;;;71.27;39.07;;;5.40;99.90;;;;;;5034261;28;20034;-85
2023/03/03 10:10:37;;;;;;;66.13;38.30;;;5.40;99.90;;;;;;5036501;28;20025;-85
2023/03/03 10:13:25;;;;;;;70.67;38.97;;;5.40;99.90;;;;;;5033734;28;20025;-85
2023/03/03 10:16:08;;;;;;;64.20;37.00;;;5.30;99.90;;;;;;5028122;28;20045;-85
2023/03/03 10:18:57;;;;;;;73.67;38.20;;;5.20;99.90;;;;;;5026383;28;20408;-82
2023/03/03 10:21:50;;;;;;;64.27;36.80;;;5.20;99.90;;;;;;5021703;28;20034;-81
2023/03/03 10:24:27;;;;;;;69.23;37.97;;;5.10;99.90;;;;;;5022722;28;20041;-82
2023/03/03 10:27:26;;;;;;;64.40;37.27;;;5.10;99.90;;;;;;5025200;28;20033;-82
2023/03/03 10:30:11;;;;;;;70.10;38.80;;;5.10;99.90;;;;;;5025866;28;20037;-81
2023/03/03 10:32:48;;;;;;;68.10;37.70;;;5.10;99.90;;;;;;5027894;28;20136;-81
2023/03/03 10:35:23;;;;;;;62.50;36.37;;;5.10;99.90;;;;;;5023194;28;20398;-81
2023/03/03 10:38:09;;;;;;;63.85;37.42;;;5.10;99.90;;;;;;5028188;28;20549;-82
2023/03/03 10:40:42;;;;;;;68.87;38.33;;;5.10;99.90;;;;;;5033705;28;20542;-82
2023/03/03 10:43:46;;;;;;;64.13;39.20;;;5.20;99.90;;;;;;5029998;28;20017;-82
2023/03/03 10:46:20;;;;;;;64.83;38.27;;;5.30;99.90;;;;;;5027638;28;20136;-81
2023/03/03 10:49:17;;;;;;;81.23;40.37;;;5.30;99.90;;;;;;5031565;28;20048;-76
2023/03/03 10:52:13;;;;;;;78.30;39.87;;;5.40;99.90;;;;;;5033046;28;20378;-85
2023/03/03 10:55:20;;;;;;;70.15;38.38;;;5.40;99.90;;;;;;5034674;28;20029;-82
2023/03/03 10:58:15;;;;;;;64.37;37.27;;;5.50;99.90;;;;;;5021862;28;20038;-82
2023/03/03 11:00:51;;;;;;;70.83;38.20;;;5.60;99.90;;;;;;5032491;28;20029;-82
2023/03/03 11:03:55;;;;;;;69.20;38.93;;;5.80;99.90;;;;;;5037176;28;20040;-82
2023/03/03 11:06:41;;;;;;;71.27;38.33;;;5.70;99.90;;;;;;5040316;28;20030;-82
2023/03/03 11:09:51;;;;;;;62.30;36.57;;;5.70;99.90;;;;;;5036951;28;20025;-80
2023/03/03 11:12:40;;;;;;;65.60;37.60;;;5.80;99.90;;;;;;5034337;28;20025;-80
2023/03/03 11:15:08;;;;;;;64.50;36.90;;;5.80;99.90;;;;;;5032727;28;20091;-80
2023/03/03 11:17:50;;;;;;;70.10;38.83;;;5.80;99.90;;;;;;5038803;28;20051;-82
2023/03/03 11:20:41;;;;;;;65.63;37.50;;;5.90;99.90;;;;;;5032644;28;20552;-80
2023/03/03 11:23:25;;;;;;;69.30;37.83;;;5.90;99.90;;;;;;5035689;28;20024;-81
2023/03/03 11:26:20;;;;;;;66.80;38.77;;;6.00;99.90;;;;;;5035149;28;20030;-81
2023/03/03 11:29:12;;;;;;;63.58;37.67;;;5.90;99.90;;;;;;5029297;28;20033;-81
2023/03/03 11:31:59;;;;;;;69.00;37.50;;;6.00;99.90;;;;;;5027796;28;20078;-81
2023/03/03 11:34:52;;;;;;;70.10;37.80;;;6.00;99.90;;;;;;5034239;28;20390;-81
2023/03/03 11:37:41;;;;;;;61.73;36.37;;;6.00;99.90;;;;;;5036015;28;20101;-81
2023/03/03 11:40:19;;;;;;;68.50;38.40;;;6.10;99.90;;;;;;5032987;28;20024;-73
2023/03/03 11:42:50;;;;;;;67.97;37.83;;;6.30;99.90;;;;;;5034450;28;20091;-84
2023/03/03 11:45:24;;;;;;;63.77;37.57;;;6.30;99.90;;;;;;5031058;28;20022;-85
2023/03/03 11:48:13;;;;;;;68.37;36.93;;;6.30;99.90;;;;;;5029260;28;20505;-84
2023/03/03 11:50:48;;;;;;;63.83;36.87;;;6.40;99.90;;;;;;5036163;28;20021;-84
2023/03/03 11:53:46;;;;;;;75.72;38.75;;;6.40;99.90;;;;;;5033782;28;20063;-84
2023/03/03 11:56:21;;;;;;;64.67;37.30;;;6.40;99.90;;;;;;5034300;28;20103;-84
2023/03/03 11:58:59;;;;;;;71.20;37.53;;;6.50;99.90;;;;;;5033052;28;20030;-84
2023/03/03 12:01:51;;;;;;;66.60;35.97;;;6.40;99.90;;;;;;5031613;28;20112;-85
2023/03/03 12:04:39;;;;;;;68.03;37.97;;;6.50;99.90;;;;;;5030106;28;20033;-86
2023/03/03 12:07:39;;;;;;;66.53;37.83;;;6.60;99.90;;;;;;5030044;28;20025;-85
2023/03/03 12:10:26;;;;;;;70.07;38.00;;;6.60;99.90;;;;;;5026823;28;20738;-85
2023/03/03 12:13:02;;;;;;;66.97;37.73;;;6.50;99.90;;;;;;5023036;28;20059;-85
2023/03/03 12:15:54;;;;;;;64.10;36.80;;;6.50;99.90;;;;;;5022821;28;20040;-85
2023/03/03 12:18:31;;;;;;;64.37;37.03;;;6.40;99.90;;;;;;5025185;28;20022;-85
2023/03/03 12:21:18;;;;;;;68.13;38.40;;;6.40;99.90;;;;;;5023872;28;20021;-90
2023/03/03 12:23:56;;;;;;;71.63;40.40;;;6.40;99.90;;;;;;5032747;28;20025;-91
2023/03/03 12:27:01;;;;;;;66.60;36.60;;;6.40;99.90;;;;;;5030662;28;20040;-90
2023/03/03 12:29:55;;;;;;;68.53;37.63;;;6.60;99.90;;;;;;5025795;28;20037;-84
2023/03/03 12:32:55;;;;;;;65.33;38.07;;;6.70;99.90;;;;;;5030331;28;20441;-84
2023/03/03 12:35:42;;;;;;;67.90;38.83;;;6.70;99.90;;;;;;5029915;28;20096;-84
2023/03/03 12:38:48;;;;;;;69.90;39.40;;;6.90;99.90;;;;;;5029971;28;20033;-84
2023/03/03 12:41:31;;;;;;;75.78;38.72;;;7.10;99.90;;;;;;5035399;28;20351;-84
2023/03/03 12:44:25;;;;;;;64.30;37.17;;;7.20;99.90;;;;;;5034394;28;20021;-90
2023/03/03 12:47:04;;;;;;;61.77;36.37;;;7.20;99.90;;;;;;5038477;28;20048;-91
2023/03/03 12:49:51;;;;;;;61.80;36.00;;;7.40;99.90;;;;;;5035604;28;20030;-91
2023/03/03 12:52:29;;;;;;;61.77;38.40;;;7.30;99.90;;;;;;5035811;28;20032;-91
2023/03/03 12:55:14;;;;;;;62.57;37.13;;;7.30;99.90;;;;;;5030961;28;20079;-91
2023/03/03 12:57:57;;;;;;;65.90;35.80;;;7.30;99.90;;;;;;5032450;28;20123;-91
2023/03/03 13:00:29;;;;;;;66.00;36.97;;;7.60;99.90;;;;;;5030806;28;20537;-91
2023/03/03 13:03:06;;;;;;;60.67;36.93;;;7.80;99.90;;;;;;5031713;28;20030;-91
2023/03/03 13:05:46;;;;;;;62.83;37.40;;;8.20;99.90;;;;;;5030046;28;20028;-78